sensor_id;sensor_type;location;lat;lon;timestamp;P1;durP1;ratioP1;P2;durP2;ratioP2
66946;SDS011;53853;51.982;5.928;2022-12-11T00:01:30;41.83;;;20.83;;
66946;SDS011;53853;51.982;5.928;2022-12-11T00:04:00;40.60;;;20.67;;
66946;SDS011;53853;51.982;5.928;2022-12-11T00:06:30;43.20;;;21.95;;
66946;SDS011;53853;51.982;5.928;2022-12-11T00:09:00;41.83;;;22.08;;
66946;SDS011;53853;51.982;5.928;2022-12-11T00:11:33;48.63;;;22.85;;
66946;SDS011;53853;51.982;5.928;2022-12-11T00:14:03;44.80;;;21.08;;
66946;SDS011;53853;51.982;5.928;2022-12-11T00:16:33;49.03;;;24.77;;
66946;SDS011;53853;51.982;5.928;2022-12-11T00:19:03;47.90;;;23.90;;
66946;SDS011;53853;51.982;5.928;2022-12-11T00:21:33;44.17;;;22.70;;
66946;SDS011;53853;51.982;5.928;2022-12-11T00:24:03;48.92;;;23.02;;
66946;SDS011;53853;51.982;5.928;2022-12-11T00:26:36;49.58;;;23.80;;
66946;SDS011;53853;51.982;5.928;2022-12-11T00:29:08;47.78;;;22.98;;
66946;SDS011;53853;51.982;5.928;2022-12-11T00:31:40;44.53;;;22.60;;
66946;SDS011;53853;51.982;5.928;2022-12-11T00:34:11;48.17;;;23.88;;
66946;SDS011;53853;51.982;5.928;2022-12-11T00:36:41;47.30;;;22.85;;
66946;SDS011;53853;51.982;5.928;2022-12-11T00:39:11;46.80;;;23.52;;
66946;SDS011;53853;51.982;5.928;2022-12-11T00:41:43;49.45;;;23.67;;
66946;SDS011;53853;51.982;5.928;2022-12-11T00:44:13;43.20;;;20.85;;
66946;SDS011;53853;51.982;5.928;2022-12-11T00:46:43;49.35;;;24.65;;
66946;SDS011;53853;51.982;5.928;2022-12-11T00:49:13;43.72;;;22.83;;
66946;SDS011;53853;51.982;5.928;2022-12-11T00:51:43;42.38;;;21.23;;
66946;SDS011;53853;51.982;5.928;2022-12-11T00:54:13;43.25;;;20.80;;
66946;SDS011;53853;51.982;5.928;2022-12-11T00:56:45;45.15;;;22.40;;
66946;SDS011;53853;51.982;5.928;2022-12-11T00:59:15;41.80;;;21.65;;
66946;SDS011;53853;51.982;5.928;2022-12-11T01:01:45;56.28;;;24.65;;
66946;SDS011;53853;51.982;5.928;2022-12-11T01:04:15;43.95;;;22.60;;
66946;SDS011;53853;51.982;5.928;2022-12-11T01:06:45;41.50;;;21.45;;
66946;SDS011;53853;51.982;5.928;2022-12-11T01:09:15;40.33;;;22.08;;
66946;SDS011;53853;51.982;5.928;2022-12-11T01:12:00;39.53;;;20.80;;
66946;SDS011;53853;51.982;5.928;2022-12-11T01:14:30;42.13;;;21.23;;
66946;SDS011;53853;51.982;5.928;2022-12-11T01:17:00;43.95;;;22.92;;
66946;SDS011;53853;51.982;5.928;2022-12-11T01:19:30;46.15;;;22.70;;
66946;SDS011;53853;51.982;5.928;2022-12-11T01:22:00;47.15;;;23.63;;
66946;SDS011;53853;51.982;5.928;2022-12-11T01:24:35;44.13;;;20.98;;
66946;SDS011;53853;51.982;5.928;2022-12-11T01:27:09;36.60;;;20.17;;
66946;SDS011;53853;51.982;5.928;2022-12-11T01:29:39;40.30;;;21.13;;
66946;SDS011;53853;51.982;5.928;2022-12-11T01:32:09;35.75;;;20.65;;
66946;SDS011;53853;51.982;5.928;2022-12-11T01:34:39;33.45;;;19.75;;
66946;SDS011;53853;51.982;5.928;2022-12-11T01:37:09;38.55;;;20.73;;
66946;SDS011;53853;51.982;5.928;2022-12-11T01:39:39;40.65;;;20.65;;
66946;SDS011;53853;51.982;5.928;2022-12-11T01:42:13;40.90;;;21.67;;
66946;SDS011;53853;51.982;5.928;2022-12-11T01:47:54;49.28;;;22.17;;
66946;SDS011;53853;51.982;5.928;2022-12-11T01:50:32;43.55;;;21.55;;
66946;SDS011;53853;51.982;5.928;2022-12-11T01:53:06;40.60;;;21.75;;
66946;SDS011;53853;51.982;5.928;2022-12-11T01:55:39;43.47;;;22.35;;
66946;SDS011;53853;51.982;5.928;2022-12-11T01:58:12;48.30;;;22.98;;
66946;SDS011;53853;51.982;5.928;2022-12-11T02:00:43;44.67;;;23.73;;
66946;SDS011;53853;51.982;5.928;2022-12-11T02:03:14;50.28;;;23.40;;
66946;SDS011;53853;51.982;5.928;2022-12-11T02:05:44;42.65;;;23.13;;
66946;SDS011;53853;51.982;5.928;2022-12-11T02:08:13;45.05;;;22.17;;
66946;SDS011;53853;51.982;5.928;2022-12-11T02:10:47;50.00;;;23.88;;
66946;SDS011;53853;51.982;5.928;2022-12-11T02:13:28;47.00;;;23.42;;
66946;SDS011;53853;51.982;5.928;2022-12-11T02:16:04;41.60;;;22.10;;
66946;SDS011;53853;51.982;5.928;2022-12-11T02:18:45;42.40;;;22.60;;
66946;SDS011;53853;51.982;5.928;2022-12-11T02:21:23;46.58;;;22.73;;
66946;SDS011;53853;51.982;5.928;2022-12-11T02:24:00;47.97;;;23.73;;
66946;SDS011;53853;51.982;5.928;2022-12-11T02:27:01;43.83;;;21.33;;
66946;SDS011;53853;51.982;5.928;2022-12-11T02:29:51;41.80;;;22.08;;
66946;SDS011;53853;51.982;5.928;2022-12-11T02:32:30;37.72;;;19.45;;
66946;SDS011;53853;51.982;5.928;2022-12-11T02:35:06;42.13;;;22.13;;
66946;SDS011;53853;51.982;5.928;2022-12-11T02:37:41;48.97;;;22.58;;
66946;SDS011;53853;51.982;5.928;2022-12-11T02:40:14;60.72;;;27.23;;
66946;SDS011;53853;51.982;5.928;2022-12-11T02:42:49;45.97;;;21.77;;
66946;SDS011;53853;51.982;5.928;2022-12-11T02:45:24;56.17;;;25.83;;
66946;SDS011;53853;51.982;5.928;2022-12-11T02:47:56;58.78;;;25.63;;
66946;SDS011;53853;51.982;5.928;2022-12-11T02:50:29;51.03;;;23.95;;
66946;SDS011;53853;51.982;5.928;2022-12-11T02:53:02;66.38;;;27.42;;
66946;SDS011;53853;51.982;5.928;2022-12-11T02:55:34;42.45;;;23.50;;
66946;SDS011;53853;51.982;5.928;2022-12-11T02:58:07;44.63;;;23.10;;
66946;SDS011;53853;51.982;5.928;2022-12-11T03:00:45;42.03;;;21.40;;
66946;SDS011;53853;51.982;5.928;2022-12-11T03:03:15;59.30;;;28.37;;
66946;SDS011;53853;51.982;5.928;2022-12-11T03:05:45;48.28;;;25.83;;
66946;SDS011;53853;51.982;5.928;2022-12-11T03:08:15;51.25;;;24.48;;
66946;SDS011;53853;51.982;5.928;2022-12-11T03:10:45;45.00;;;23.80;;
66946;SDS011;53853;51.982;5.928;2022-12-11T03:13:16;56.60;;;25.70;;
66946;SDS011;53853;51.982;5.928;2022-12-11T03:15:53;57.17;;;28.08;;
66946;SDS011;53853;51.982;5.928;2022-12-11T03:18:33;45.22;;;23.25;;
66946;SDS011;53853;51.982;5.928;2022-12-11T03:21:11;46.65;;;22.85;;
66946;SDS011;53853;51.982;5.928;2022-12-11T03:23:49;48.92;;;23.33;;
66946;SDS011;53853;51.982;5.928;2022-12-11T03:26:29;62.05;;;26.98;;
66946;SDS011;53853;51.982;5.928;2022-12-11T03:29:06;49.80;;;25.13;;
66946;SDS011;53853;51.982;5.928;2022-12-11T03:31:47;51.55;;;26.42;;
66946;SDS011;53853;51.982;5.928;2022-12-11T03:34:26;51.03;;;24.73;;
66946;SDS011;53853;51.982;5.928;2022-12-11T03:36:58;46.35;;;22.92;;
66946;SDS011;53853;51.982;5.928;2022-12-11T03:39:31;44.03;;;23.70;;
66946;SDS011;53853;51.982;5.928;2022-12-11T03:42:05;55.90;;;26.35;;
66946;SDS011;53853;51.982;5.928;2022-12-11T03:44:39;48.00;;;23.52;;
66946;SDS011;53853;51.982;5.928;2022-12-11T03:47:15;42.85;;;22.85;;
66946;SDS011;53853;51.982;5.928;2022-12-11T03:49:48;49.38;;;24.77;;
66946;SDS011;53853;51.982;5.928;2022-12-11T03:52:21;73.30;;;38.33;;
66946;SDS011;53853;51.982;5.928;2022-12-11T03:54:53;58.53;;;32.30;;
66946;SDS011;53853;51.982;5.928;2022-12-11T03:57:27;47.78;;;25.30;;
66946;SDS011;53853;51.982;5.928;2022-12-11T04:00:01;49.38;;;24.52;;
66946;SDS011;53853;51.982;5.928;2022-12-11T04:02:40;47.03;;;23.52;;
66946;SDS011;53853;51.982;5.928;2022-12-11T04:05:30;50.90;;;27.02;;
66946;SDS011;53853;51.982;5.928;2022-12-11T04:08:00;46.72;;;23.67;;
66946;SDS011;53853;51.982;5.928;2022-12-11T04:10:30;48.50;;;22.92;;
66946;SDS011;53853;51.982;5.928;2022-12-11T04:13:00;48.78;;;24.45;;
66946;SDS011;53853;51.982;5.928;2022-12-11T04:15:30;46.92;;;25.90;;
66946;SDS011;53853;51.982;5.928;2022-12-11T04:18:00;48.20;;;23.77;;
66946;SDS011;53853;51.982;5.928;2022-12-11T04:20:43;49.88;;;24.63;;
66946;SDS011;53853;51.982;5.928;2022-12-11T04:23:25;47.15;;;25.17;;
66946;SDS011;53853;51.982;5.928;2022-12-11T04:26:08;50.65;;;24.98;;
66946;SDS011;53853;51.982;5.928;2022-12-11T04:28:41;58.35;;;26.88;;
66946;SDS011;53853;51.982;5.928;2022-12-11T04:31:11;46.83;;;23.60;;
66946;SDS011;53853;51.982;5.928;2022-12-11T04:33:45;45.80;;;24.33;;
66946;SDS011;53853;51.982;5.928;2022-12-11T04:36:15;50.33;;;25.27;;
66946;SDS011;53853;51.982;5.928;2022-12-11T04:38:45;45.65;;;24.80;;
66946;SDS011;53853;51.982;5.928;2022-12-11T04:41:15;42.22;;;23.10;;
66946;SDS011;53853;51.982;5.928;2022-12-11T04:43:45;48.72;;;25.58;;
66946;SDS011;53853;51.982;5.928;2022-12-11T04:46:16;43.00;;;21.50;;
66946;SDS011;53853;51.982;5.928;2022-12-11T04:48:50;50.67;;;26.50;;
66946;SDS011;53853;51.982;5.928;2022-12-11T04:51:21;53.42;;;25.67;;
66946;SDS011;53853;51.982;5.928;2022-12-11T04:53:51;49.75;;;26.60;;
66946;SDS011;53853;51.982;5.928;2022-12-11T04:56:22;46.15;;;24.00;;
66946;SDS011;53853;51.982;5.928;2022-12-11T04:58:52;40.78;;;25.00;;
66946;SDS011;53853;51.982;5.928;2022-12-11T05:01:22;49.75;;;26.52;;
66946;SDS011;53853;51.982;5.928;2022-12-11T05:03:54;49.08;;;25.77;;
66946;SDS011;53853;51.982;5.928;2022-12-11T05:06:26;48.17;;;26.05;;
66946;SDS011;53853;51.982;5.928;2022-12-11T05:08:56;49.30;;;26.02;;
66946;SDS011;53853;51.982;5.928;2022-12-11T05:11:26;44.55;;;24.85;;
66946;SDS011;53853;51.982;5.928;2022-12-11T05:13:56;45.38;;;25.65;;
66946;SDS011;53853;51.982;5.928;2022-12-11T05:16:26;41.92;;;23.58;;
66946;SDS011;53853;51.982;5.928;2022-12-11T05:18:58;49.00;;;25.52;;
66946;SDS011;53853;51.982;5.928;2022-12-11T05:21:28;44.15;;;25.13;;
66946;SDS011;53853;51.982;5.928;2022-12-11T05:23:58;41.78;;;23.95;;
66946;SDS011;53853;51.982;5.928;2022-12-11T05:26:28;42.95;;;22.95;;
66946;SDS011;53853;51.982;5.928;2022-12-11T05:28:58;45.80;;;25.80;;
66946;SDS011;53853;51.982;5.928;2022-12-11T05:31:28;41.63;;;25.38;;
66946;SDS011;53853;51.982;5.928;2022-12-11T05:34:00;46.92;;;26.67;;
66946;SDS011;53853;51.982;5.928;2022-12-11T05:36:31;47.50;;;26.45;;
66946;SDS011;53853;51.982;5.928;2022-12-11T05:39:02;43.33;;;24.88;;
66946;SDS011;53853;51.982;5.928;2022-12-11T05:41:32;36.50;;;22.73;;
66946;SDS011;53853;51.982;5.928;2022-12-11T05:44:02;42.20;;;24.10;;
66946;SDS011;53853;51.982;5.928;2022-12-11T05:46:33;42.90;;;24.65;;
66946;SDS011;53853;51.982;5.928;2022-12-11T05:49:06;44.13;;;25.73;;
66946;SDS011;53853;51.982;5.928;2022-12-11T05:51:38;47.88;;;27.55;;
66946;SDS011;53853;51.982;5.928;2022-12-11T05:54:08;39.60;;;24.20;;
66946;SDS011;53853;51.982;5.928;2022-12-11T05:56:38;37.45;;;23.50;;
66946;SDS011;53853;51.982;5.928;2022-12-11T05:59:08;43.03;;;24.88;;
66946;SDS011;53853;51.982;5.928;2022-12-11T06:01:40;41.17;;;24.90;;
66946;SDS011;53853;51.982;5.928;2022-12-11T06:04:13;41.50;;;25.20;;
66946;SDS011;53853;51.982;5.928;2022-12-11T06:06:43;43.28;;;24.88;;
66946;SDS011;53853;51.982;5.928;2022-12-11T06:09:13;45.42;;;25.13;;
66946;SDS011;53853;51.982;5.928;2022-12-11T06:11:44;43.47;;;24.33;;
66946;SDS011;53853;51.982;5.928;2022-12-11T06:14:14;42.35;;;23.98;;
66946;SDS011;53853;51.982;5.928;2022-12-11T06:16:44;45.63;;;25.90;;
66946;SDS011;53853;51.982;5.928;2022-12-11T06:19:17;33.67;;;20.50;;
66946;SDS011;53853;51.982;5.928;2022-12-11T06:21:47;39.17;;;24.35;;
66946;SDS011;53853;51.982;5.928;2022-12-11T06:24:17;38.95;;;23.83;;
66946;SDS011;53853;51.982;5.928;2022-12-11T06:26:47;35.35;;;24.23;;
66946;SDS011;53853;51.982;5.928;2022-12-11T06:29:17;35.15;;;23.90;;
66946;SDS011;53853;51.982;5.928;2022-12-11T06:31:47;37.25;;;23.25;;
66946;SDS011;53853;51.982;5.928;2022-12-11T06:34:19;35.40;;;21.90;;
66946;SDS011;53853;51.982;5.928;2022-12-11T06:36:49;32.97;;;21.65;;
66946;SDS011;53853;51.982;5.928;2022-12-11T06:39:19;39.00;;;23.75;;
66946;SDS011;53853;51.982;5.928;2022-12-11T06:41:49;40.70;;;24.65;;
66946;SDS011;53853;51.982;5.928;2022-12-11T06:44:19;34.95;;;21.00;;
66946;SDS011;53853;51.982;5.928;2022-12-11T06:46:49;36.88;;;23.08;;
66946;SDS011;53853;51.982;5.928;2022-12-11T06:49:22;31.60;;;20.83;;
66946;SDS011;53853;51.982;5.928;2022-12-11T06:51:52;30.92;;;19.95;;
66946;SDS011;53853;51.982;5.928;2022-12-11T06:54:24;31.85;;;19.70;;
66946;SDS011;53853;51.982;5.928;2022-12-11T06:56:54;32.58;;;19.67;;
66946;SDS011;53853;51.982;5.928;2022-12-11T06:59:34;29.92;;;19.17;;
66946;SDS011;53853;51.982;5.928;2022-12-11T07:02:08;29.50;;;19.80;;
66946;SDS011;53853;51.982;5.928;2022-12-11T07:04:43;26.42;;;18.38;;
66946;SDS011;53853;51.982;5.928;2022-12-11T07:07:14;26.75;;;17.55;;
66946;SDS011;53853;51.982;5.928;2022-12-11T07:09:45;27.45;;;18.77;;
66946;SDS011;53853;51.982;5.928;2022-12-11T07:12:15;32.90;;;21.10;;
66946;SDS011;53853;51.982;5.928;2022-12-11T07:14:45;29.38;;;18.40;;
66946;SDS011;53853;51.982;5.928;2022-12-11T07:17:15;32.15;;;20.50;;
66946;SDS011;53853;51.982;5.928;2022-12-11T07:19:48;28.92;;;21.10;;
66946;SDS011;53853;51.982;5.928;2022-12-11T07:22:18;26.65;;;18.38;;
66946;SDS011;53853;51.982;5.928;2022-12-11T07:24:49;32.13;;;20.95;;
66946;SDS011;53853;51.982;5.928;2022-12-11T07:27:19;27.98;;;18.10;;
66946;SDS011;53853;51.982;5.928;2022-12-11T07:29:49;25.50;;;16.52;;
66946;SDS011;53853;51.982;5.928;2022-12-11T07:32:20;25.17;;;17.23;;
66946;SDS011;53853;51.982;5.928;2022-12-11T07:34:52;25.25;;;16.25;;
66946;SDS011;53853;51.982;5.928;2022-12-11T07:37:22;25.13;;;17.13;;
66946;SDS011;53853;51.982;5.928;2022-12-11T07:39:52;25.40;;;17.42;;
66946;SDS011;53853;51.982;5.928;2022-12-11T07:42:22;22.50;;;16.15;;
66946;SDS011;53853;51.982;5.928;2022-12-11T07:44:52;27.45;;;17.60;;
66946;SDS011;53853;51.982;5.928;2022-12-11T07:47:22;25.10;;;15.88;;
66946;SDS011;53853;51.982;5.928;2022-12-11T07:49:55;25.50;;;16.63;;
66946;SDS011;53853;51.982;5.928;2022-12-11T07:52:25;28.17;;;19.25;;
66946;SDS011;53853;51.982;5.928;2022-12-11T07:54:55;25.08;;;16.95;;
66946;SDS011;53853;51.982;5.928;2022-12-11T07:57:24;22.75;;;15.98;;
66946;SDS011;53853;51.982;5.928;2022-12-11T07:59:55;24.88;;;14.95;;
66946;SDS011;53853;51.982;5.928;2022-12-11T08:02:25;23.05;;;15.35;;
66946;SDS011;53853;51.982;5.928;2022-12-11T08:04:57;24.58;;;16.75;;
66946;SDS011;53853;51.982;5.928;2022-12-11T08:07:27;26.50;;;17.58;;
66946;SDS011;53853;51.982;5.928;2022-12-11T08:09:57;22.83;;;14.85;;
66946;SDS011;53853;51.982;5.928;2022-12-11T08:12:27;22.25;;;16.10;;
66946;SDS011;53853;51.982;5.928;2022-12-11T08:14:57;21.65;;;14.70;;
66946;SDS011;53853;51.982;5.928;2022-12-11T08:17:27;19.58;;;13.50;;
66946;SDS011;53853;51.982;5.928;2022-12-11T08:19:59;22.08;;;15.20;;
66946;SDS011;53853;51.982;5.928;2022-12-11T08:22:30;18.40;;;13.38;;
66946;SDS011;53853;51.982;5.928;2022-12-11T08:25:00;19.40;;;14.10;;
66946;SDS011;53853;51.982;5.928;2022-12-11T08:27:30;19.20;;;13.77;;
66946;SDS011;53853;51.982;5.928;2022-12-11T08:29:59;21.58;;;14.77;;
66946;SDS011;53853;51.982;5.928;2022-12-11T08:32:29;21.73;;;14.25;;
66946;SDS011;53853;51.982;5.928;2022-12-11T08:35:02;18.10;;;12.73;;
66946;SDS011;53853;51.982;5.928;2022-12-11T08:37:33;23.57;;;15.27;;
66946;SDS011;53853;51.982;5.928;2022-12-11T08:40:03;21.38;;;14.52;;
66946;SDS011;53853;51.982;5.928;2022-12-11T08:42:35;18.95;;;13.10;;
66946;SDS011;53853;51.982;5.928;2022-12-11T08:45:06;20.55;;;13.88;;
66946;SDS011;53853;51.982;5.928;2022-12-11T08:47:37;20.70;;;13.38;;
66946;SDS011;53853;51.982;5.928;2022-12-11T08:50:09;19.63;;;13.85;;
66946;SDS011;53853;51.982;5.928;2022-12-11T08:52:39;19.55;;;13.82;;
66946;SDS011;53853;51.982;5.928;2022-12-11T08:55:09;18.52;;;13.07;;
66946;SDS011;53853;51.982;5.928;2022-12-11T08:57:40;22.30;;;14.90;;
66946;SDS011;53853;51.982;5.928;2022-12-11T09:00:10;23.00;;;14.80;;
66946;SDS011;53853;51.982;5.928;2022-12-11T09:02:41;21.50;;;14.50;;
66946;SDS011;53853;51.982;5.928;2022-12-11T09:05:14;19.13;;;13.27;;
66946;SDS011;53853;51.982;5.928;2022-12-11T09:07:44;20.52;;;13.55;;
66946;SDS011;53853;51.982;5.928;2022-12-11T09:10:14;16.77;;;11.88;;
66946;SDS011;53853;51.982;5.928;2022-12-11T09:12:44;20.15;;;13.15;;
66946;SDS011;53853;51.982;5.928;2022-12-11T09:15:14;18.13;;;12.73;;
66946;SDS011;53853;51.982;5.928;2022-12-11T09:17:44;24.02;;;13.57;;
66946;SDS011;53853;51.982;5.928;2022-12-11T09:20:16;19.67;;;13.65;;
66946;SDS011;53853;51.982;5.928;2022-12-11T09:22:46;19.23;;;11.55;;
66946;SDS011;53853;51.982;5.928;2022-12-11T09:25:16;17.45;;;12.20;;
66946;SDS011;53853;51.982;5.928;2022-12-11T09:27:46;18.02;;;12.20;;
66946;SDS011;53853;51.982;5.928;2022-12-11T09:30:16;17.52;;;13.02;;
66946;SDS011;53853;51.982;5.928;2022-12-11T09:32:46;17.88;;;12.38;;
66946;SDS011;53853;51.982;5.928;2022-12-11T09:35:20;18.35;;;12.43;;
66946;SDS011;53853;51.982;5.928;2022-12-11T09:37:52;21.67;;;15.30;;
66946;SDS011;53853;51.982;5.928;2022-12-11T09:40:22;22.77;;;14.98;;
66946;SDS011;53853;51.982;5.928;2022-12-11T09:42:53;21.98;;;15.35;;
66946;SDS011;53853;51.982;5.928;2022-12-11T09:45:30;18.92;;;13.15;;
66946;SDS011;53853;51.982;5.928;2022-12-11T09:48:04;19.98;;;14.60;;
66946;SDS011;53853;51.982;5.928;2022-12-11T09:50:40;20.50;;;14.10;;
66946;SDS011;53853;51.982;5.928;2022-12-11T09:53:11;23.13;;;13.88;;
66946;SDS011;53853;51.982;5.928;2022-12-11T09:55:48;19.90;;;13.65;;
66946;SDS011;53853;51.982;5.928;2022-12-11T09:58:25;22.35;;;14.35;;
66946;SDS011;53853;51.982;5.928;2022-12-11T10:01:05;19.90;;;13.43;;
66946;SDS011;53853;51.982;5.928;2022-12-11T10:03:48;21.75;;;14.82;;
66946;SDS011;53853;51.982;5.928;2022-12-11T10:06:34;23.83;;;15.70;;
66946;SDS011;53853;51.982;5.928;2022-12-11T10:09:11;23.77;;;14.70;;
66946;SDS011;53853;51.982;5.928;2022-12-11T10:11:52;21.45;;;15.15;;
66946;SDS011;53853;51.982;5.928;2022-12-11T10:14:37;20.70;;;13.80;;
66946;SDS011;53853;51.982;5.928;2022-12-11T10:19:48;18.45;;;12.15;;
66946;SDS011;53853;51.982;5.928;2022-12-11T10:22:22;18.75;;;12.77;;
66946;SDS011;53853;51.982;5.928;2022-12-11T10:24:57;20.38;;;14.07;;
66946;SDS011;53853;51.982;5.928;2022-12-11T10:27:31;18.15;;;13.23;;
66946;SDS011;53853;51.982;5.928;2022-12-11T10:30:11;21.63;;;14.90;;
66946;SDS011;53853;51.982;5.928;2022-12-11T10:32:51;18.83;;;12.45;;
66946;SDS011;53853;51.982;5.928;2022-12-11T10:35:29;16.65;;;11.98;;
66946;SDS011;53853;51.982;5.928;2022-12-11T10:38:15;17.83;;;13.10;;
66946;SDS011;53853;51.982;5.928;2022-12-11T10:40:49;18.63;;;13.18;;
66946;SDS011;53853;51.982;5.928;2022-12-11T10:43:32;17.30;;;12.57;;
66946;SDS011;53853;51.982;5.928;2022-12-11T10:46:04;22.63;;;14.38;;
66946;SDS011;53853;51.982;5.928;2022-12-11T10:48:45;16.77;;;12.32;;
66946;SDS011;53853;51.982;5.928;2022-12-11T10:51:18;21.70;;;14.43;;
66946;SDS011;53853;51.982;5.928;2022-12-11T10:53:54;21.48;;;14.60;;
66946;SDS011;53853;51.982;5.928;2022-12-11T10:56:34;19.80;;;13.27;;
66946;SDS011;53853;51.982;5.928;2022-12-11T10:59:05;19.88;;;14.57;;
66946;SDS011;53853;51.982;5.928;2022-12-11T11:01:45;16.70;;;12.20;;
66946;SDS011;53853;51.982;5.928;2022-12-11T11:04:18;17.58;;;12.52;;
66946;SDS011;53853;51.982;5.928;2022-12-11T11:06:59;16.13;;;11.75;;
66946;SDS011;53853;51.982;5.928;2022-12-11T11:09:35;19.33;;;13.90;;
66946;SDS011;53853;51.982;5.928;2022-12-11T11:12:15;19.42;;;14.55;;
66946;SDS011;53853;51.982;5.928;2022-12-11T11:14:58;17.83;;;12.70;;
66946;SDS011;53853;51.982;5.928;2022-12-11T11:17:29;16.83;;;13.38;;
66946;SDS011;53853;51.982;5.928;2022-12-11T11:20:03;18.40;;;12.77;;
66946;SDS011;53853;51.982;5.928;2022-12-11T11:22:42;17.23;;;13.38;;
66946;SDS011;53853;51.982;5.928;2022-12-11T11:25:18;18.05;;;13.13;;
66946;SDS011;53853;51.982;5.928;2022-12-11T11:27:50;21.10;;;15.52;;
66946;SDS011;53853;51.982;5.928;2022-12-11T11:30:23;19.85;;;15.65;;
66946;SDS011;53853;51.982;5.928;2022-12-11T11:32:55;19.38;;;14.32;;
66946;SDS011;53853;51.982;5.928;2022-12-11T11:35:28;19.47;;;15.00;;
66946;SDS011;53853;51.982;5.928;2022-12-11T11:38:01;17.70;;;13.60;;
66946;SDS011;53853;51.982;5.928;2022-12-11T11:40:47;18.17;;;12.98;;
66946;SDS011;53853;51.982;5.928;2022-12-11T11:43:24;21.05;;;14.80;;
66946;SDS011;53853;51.982;5.928;2022-12-11T11:46:03;25.25;;;16.80;;
66946;SDS011;53853;51.982;5.928;2022-12-11T11:48:43;21.17;;;16.08;;
66946;SDS011;53853;51.982;5.928;2022-12-11T11:51:20;20.55;;;15.32;;
66946;SDS011;53853;51.982;5.928;2022-12-11T11:53:55;22.40;;;17.70;;
66946;SDS011;53853;51.982;5.928;2022-12-11T11:56:32;20.40;;;15.52;;
66946;SDS011;53853;51.982;5.928;2022-12-11T11:59:06;22.73;;;14.95;;
66946;SDS011;53853;51.982;5.928;2022-12-11T12:01:45;21.27;;;15.77;;
66946;SDS011;53853;51.982;5.928;2022-12-11T12:04:15;22.45;;;16.23;;
66946;SDS011;53853;51.982;5.928;2022-12-11T12:09:41;23.48;;;15.70;;
66946;SDS011;53853;51.982;5.928;2022-12-11T12:12:25;19.67;;;13.98;;
66946;SDS011;53853;51.982;5.928;2022-12-11T12:15:14;25.15;;;16.40;;
66946;SDS011;53853;51.982;5.928;2022-12-11T12:17:56;24.88;;;16.77;;
66946;SDS011;53853;51.982;5.928;2022-12-11T12:20:36;20.63;;;13.73;;
66946;SDS011;53853;51.982;5.928;2022-12-11T12:23:19;22.33;;;15.25;;
66946;SDS011;53853;51.982;5.928;2022-12-11T12:26:02;20.33;;;14.32;;
66946;SDS011;53853;51.982;5.928;2022-12-11T12:28:43;20.10;;;14.10;;
66946;SDS011;53853;51.982;5.928;2022-12-11T12:31:27;22.52;;;14.65;;
66946;SDS011;53853;51.982;5.928;2022-12-11T12:34:14;18.77;;;13.52;;
66946;SDS011;53853;51.982;5.928;2022-12-11T12:36:53;23.17;;;15.73;;
66946;SDS011;53853;51.982;5.928;2022-12-11T12:39:30;22.33;;;14.25;;
66946;SDS011;53853;51.982;5.928;2022-12-11T12:42:07;22.77;;;14.73;;
66946;SDS011;53853;51.982;5.928;2022-12-11T12:44:48;24.25;;;15.95;;
66946;SDS011;53853;51.982;5.928;2022-12-11T12:47:26;20.63;;;14.55;;
66946;SDS011;53853;51.982;5.928;2022-12-11T12:50:00;21.95;;;15.10;;
66946;SDS011;53853;51.982;5.928;2022-12-11T12:52:38;19.73;;;13.82;;
66946;SDS011;53853;51.982;5.928;2022-12-11T12:55:15;18.08;;;12.23;;
66946;SDS011;53853;51.982;5.928;2022-12-11T12:57:51;18.25;;;13.50;;
66946;SDS011;53853;51.982;5.928;2022-12-11T13:00:29;21.48;;;13.68;;
66946;SDS011;53853;51.982;5.928;2022-12-11T13:03:02;17.67;;;12.68;;
66946;SDS011;53853;51.982;5.928;2022-12-11T13:05:42;21.35;;;14.23;;
66946;SDS011;53853;51.982;5.928;2022-12-11T13:08:23;23.83;;;15.75;;
66946;SDS011;53853;51.982;5.928;2022-12-11T13:11:01;20.88;;;14.43;;
66946;SDS011;53853;51.982;5.928;2022-12-11T13:13:35;19.17;;;14.43;;
66946;SDS011;53853;51.982;5.928;2022-12-11T13:16:21;19.77;;;14.02;;
66946;SDS011;53853;51.982;5.928;2022-12-11T13:18:53;21.02;;;14.13;;
66946;SDS011;53853;51.982;5.928;2022-12-11T13:21:24;21.45;;;14.85;;
66946;SDS011;53853;51.982;5.928;2022-12-11T13:24:11;20.75;;;14.18;;
66946;SDS011;53853;51.982;5.928;2022-12-11T13:26:44;19.15;;;14.07;;
66946;SDS011;53853;51.982;5.928;2022-12-11T13:29:28;19.80;;;14.88;;
66946;SDS011;53853;51.982;5.928;2022-12-11T13:32:04;21.23;;;15.35;;
66946;SDS011;53853;51.982;5.928;2022-12-11T13:34:50;20.73;;;15.65;;
66946;SDS011;53853;51.982;5.928;2022-12-11T13:37:24;26.65;;;16.55;;
66946;SDS011;53853;51.982;5.928;2022-12-11T13:39:59;22.85;;;15.25;;
66946;SDS011;53853;51.982;5.928;2022-12-11T13:42:30;19.85;;;13.98;;
66946;SDS011;53853;51.982;5.928;2022-12-11T13:45:03;21.80;;;15.70;;
66946;SDS011;53853;51.982;5.928;2022-12-11T13:47:37;20.58;;;13.50;;
66946;SDS011;53853;51.982;5.928;2022-12-11T13:50:13;22.98;;;15.52;;
66946;SDS011;53853;51.982;5.928;2022-12-11T13:52:53;20.67;;;13.95;;
66946;SDS011;53853;51.982;5.928;2022-12-11T13:55:25;18.58;;;13.23;;
66946;SDS011;53853;51.982;5.928;2022-12-11T13:57:57;20.08;;;14.30;;
66946;SDS011;53853;51.982;5.928;2022-12-11T14:00:28;18.05;;;13.75;;
66946;SDS011;53853;51.982;5.928;2022-12-11T14:03:04;20.17;;;14.35;;
66946;SDS011;53853;51.982;5.928;2022-12-11T14:05:34;20.60;;;14.52;;
66946;SDS011;53853;51.982;5.928;2022-12-11T14:08:05;19.88;;;14.20;;
66946;SDS011;53853;51.982;5.928;2022-12-11T14:10:37;19.33;;;13.07;;
66946;SDS011;53853;51.982;5.928;2022-12-11T14:13:20;19.13;;;13.43;;
66946;SDS011;53853;51.982;5.928;2022-12-11T14:15:53;17.67;;;12.70;;
66946;SDS011;53853;51.982;5.928;2022-12-11T14:18:26;20.52;;;13.32;;
66946;SDS011;53853;51.982;5.928;2022-12-11T14:20:59;17.95;;;13.32;;
66946;SDS011;53853;51.982;5.928;2022-12-11T14:23:32;18.08;;;12.18;;
66946;SDS011;53853;51.982;5.928;2022-12-11T14:26:10;17.83;;;13.13;;
66946;SDS011;53853;51.982;5.928;2022-12-11T14:28:45;18.30;;;12.23;;
66946;SDS011;53853;51.982;5.928;2022-12-11T14:31:15;60.17;;;33.58;;
66946;SDS011;53853;51.982;5.928;2022-12-11T14:33:54;26.00;;;16.92;;
66946;SDS011;53853;51.982;5.928;2022-12-11T14:36:28;19.38;;;13.18;;
66946;SDS011;53853;51.982;5.928;2022-12-11T14:38:59;19.92;;;13.15;;
66946;SDS011;53853;51.982;5.928;2022-12-11T14:41:34;19.05;;;12.68;;
66946;SDS011;53853;51.982;5.928;2022-12-11T14:44:11;20.00;;;12.60;;
66946;SDS011;53853;51.982;5.928;2022-12-11T14:46:44;19.50;;;13.38;;
66946;SDS011;53853;51.982;5.928;2022-12-11T14:49:20;18.10;;;13.52;;
66946;SDS011;53853;51.982;5.928;2022-12-11T14:51:54;17.58;;;12.15;;
66946;SDS011;53853;51.982;5.928;2022-12-11T14:54:28;16.73;;;12.50;;
66946;SDS011;53853;51.982;5.928;2022-12-11T14:57:02;16.85;;;12.38;;
66946;SDS011;53853;51.982;5.928;2022-12-11T14:59:36;18.70;;;12.45;;
66946;SDS011;53853;51.982;5.928;2022-12-11T15:02:22;17.25;;;12.68;;
66946;SDS011;53853;51.982;5.928;2022-12-11T15:07:53;17.48;;;12.45;;
66946;SDS011;53853;51.982;5.928;2022-12-11T15:10:29;17.75;;;12.90;;